sensor_id;sensor_type;location;lat;lon;timestamp;temperature;humidity
23377;DHT22;14353;46.070;13.222;2023-02-27T00:02:00;17.80;39.90
23377;DHT22;14353;46.070;13.222;2023-02-27T00:04:26;17.80;39.90
23377;DHT22;14353;46.070;13.222;2023-02-27T00:06:52;17.80;39.90
23377;DHT22;14353;46.070;13.222;2023-02-27T00:09:18;17.80;39.90
23377;DHT22;14353;46.070;13.222;2023-02-27T00:11:43;17.80;39.90
23377;DHT22;14353;46.070;13.222;2023-02-27T00:14:09;17.80;39.90
23377;DHT22;14353;46.070;13.222;2023-02-27T00:16:35;17.80;39.90
23377;DHT22;14353;46.070;13.222;2023-02-27T00:19:01;17.80;39.90
23377;DHT22;14353;46.070;13.222;2023-02-27T00:21:30;17.80;39.90
23377;DHT22;14353;46.070;13.222;2023-02-27T00:23:56;17.80;39.90
23377;DHT22;14353;46.070;13.222;2023-02-27T00:26:22;17.80;39.90
23377;DHT22;14353;46.070;13.222;2023-02-27T00:28:48;17.80;39.90
23377;DHT22;14353;46.070;13.222;2023-02-27T00:31:17;17.80;39.90
23377;DHT22;14353;46.070;13.222;2023-02-27T00:33:43;17.80;39.90
23377;DHT22;14353;46.070;13.222;2023-02-27T00:36:09;17.80;39.90
23377;DHT22;14353;46.070;13.222;2023-02-27T00:38:34;17.80;39.90
23377;DHT22;14353;46.070;13.222;2023-02-27T00:41:00;17.80;40.00
23377;DHT22;14353;46.070;13.222;2023-02-27T00:43:26;17.80;39.90
23377;DHT22;14353;46.070;13.222;2023-02-27T00:45:52;17.80;40.60
23377;DHT22;14353;46.070;13.222;2023-02-27T00:48:17;17.80;39.90
23377;DHT22;14353;46.070;13.222;2023-02-27T00:50:43;17.70;39.90
23377;DHT22;14353;46.070;13.222;2023-02-27T00:53:09;17.70;39.90
23377;DHT22;14353;46.070;13.222;2023-02-27T00:55:35;17.70;39.80
23377;DHT22;14353;46.070;13.222;2023-02-27T00:58:01;17.80;39.90
23377;DHT22;14353;46.070;13.222;2023-02-27T01:00:26;17.70;39.80
23377;DHT22;14353;46.070;13.222;2023-02-27T01:02:52;17.80;39.90
23377;DHT22;14353;46.070;13.222;2023-02-27T01:05:18;17.70;39.80
23377;DHT22;14353;46.070;13.222;2023-02-27T01:07:44;17.70;39.90
23377;DHT22;14353;46.070;13.222;2023-02-27T01:10:10;17.70;39.90
23377;DHT22;14353;46.070;13.222;2023-02-27T01:12:36;17.70;39.80
23377;DHT22;14353;46.070;13.222;2023-02-27T01:15:04;17.70;39.90
23377;DHT22;14353;46.070;13.222;2023-02-27T01:17:30;17.70;39.80
23377;DHT22;14353;46.070;13.222;2023-02-27T01:19:56;17.70;39.90
23377;DHT22;14353;46.070;13.222;2023-02-27T01:22:21;17.70;40.00
23377;DHT22;14353;46.070;13.222;2023-02-27T01:24:47;17.70;39.80
23377;DHT22;14353;46.070;13.222;2023-02-27T01:27:13;17.70;39.80
23377;DHT22;14353;46.070;13.222;2023-02-27T01:29:38;17.70;39.80
23377;DHT22;14353;46.070;13.222;2023-02-27T01:32:04;17.70;39.80
23377;DHT22;14353;46.070;13.222;2023-02-27T01:34:30;17.70;39.80
23377;DHT22;14353;46.070;13.222;2023-02-27T01:36:56;17.70;39.80
23377;DHT22;14353;46.070;13.222;2023-02-27T01:39:21;17.70;39.80
23377;DHT22;14353;46.070;13.222;2023-02-27T01:41:47;17.70;39.80
23377;DHT22;14353;46.070;13.222;2023-02-27T01:44:14;17.70;39.80
23377;DHT22;14353;46.070;13.222;2023-02-27T01:46:40;17.70;39.80
23377;DHT22;14353;46.070;13.222;2023-02-27T01:51:39;17.70;39.80
23377;DHT22;14353;46.070;13.222;2023-02-27T01:54:07;17.70;39.80
23377;DHT22;14353;46.070;13.222;2023-02-27T01:56:34;17.70;39.80
23377;DHT22;14353;46.070;13.222;2023-02-27T01:59:02;17.70;39.90
23377;DHT22;14353;46.070;13.222;2023-02-27T02:01:30;17.70;39.80
23377;DHT22;14353;46.070;13.222;2023-02-27T02:03:59;17.70;39.80
23377;DHT22;14353;46.070;13.222;2023-02-27T02:06:26;17.70;39.80
23377;DHT22;14353;46.070;13.222;2023-02-27T02:08:54;17.70;39.80
23377;DHT22;14353;46.070;13.222;2023-02-27T02:11:21;17.70;39.80
23377;DHT22;14353;46.070;13.222;2023-02-27T02:13:50;17.60;39.70
23377;DHT22;14353;46.070;13.222;2023-02-27T02:16:20;17.70;39.80
23377;DHT22;14353;46.070;13.222;2023-02-27T02:27:27;17.60;39.70
23377;DHT22;14353;46.070;13.222;2023-02-27T02:38:55;17.60;39.80
23377;DHT22;14353;46.070;13.222;2023-02-27T02:55:22;17.60;39.70
23377;DHT22;14353;46.070;13.222;2023-02-27T02:58:13;17.60;39.70
23377;DHT22;14353;46.070;13.222;2023-02-27T03:00:54;17.60;39.70
23377;DHT22;14353;46.070;13.222;2023-02-27T03:03:28;17.60;39.70
23377;DHT22;14353;46.070;13.222;2023-02-27T03:06:02;17.60;39.60
23377;DHT22;14353;46.070;13.222;2023-02-27T03:08:33;17.60;39.70
23377;DHT22;14353;46.070;13.222;2023-02-27T03:11:02;17.60;39.60
23377;DHT22;14353;46.070;13.222;2023-02-27T03:13:47;17.60;39.60
23377;DHT22;14353;46.070;13.222;2023-02-27T03:16:35;17.60;39.60
23377;DHT22;14353;46.070;13.222;2023-02-27T03:22:04;17.60;39.60
23377;DHT22;14353;46.070;13.222;2023-02-27T03:24:44;17.60;39.60
23377;DHT22;14353;46.070;13.222;2023-02-27T03:27:12;17.60;39.60
23377;DHT22;14353;46.070;13.222;2023-02-27T03:30:00;17.60;39.60
23377;DHT22;14353;46.070;13.222;2023-02-27T03:35:04;17.60;39.60
23377;DHT22;14353;46.070;13.222;2023-02-27T03:40:32;17.60;39.60
23377;DHT22;14353;46.070;13.222;2023-02-27T03:46:05;17.50;39.60
23377;DHT22;14353;46.070;13.222;2023-02-27T03:48:31;17.50;39.60
23377;DHT22;14353;46.070;13.222;2023-02-27T03:50:57;17.50;39.60
23377;DHT22;14353;46.070;13.222;2023-02-27T03:53:47;17.50;39.50
23377;DHT22;14353;46.070;13.222;2023-02-27T03:56:19;17.50;39.60
23377;DHT22;14353;46.070;13.222;2023-02-27T03:58:46;17.50;39.60
23377;DHT22;14353;46.070;13.222;2023-02-27T04:01:12;17.50;39.50
23377;DHT22;14353;46.070;13.222;2023-02-27T04:03:45;17.50;39.50
23377;DHT22;14353;46.070;13.222;2023-02-27T04:06:15;17.50;39.60
23377;DHT22;14353;46.070;13.222;2023-02-27T04:14:48;17.50;39.60
23377;DHT22;14353;46.070;13.222;2023-02-27T04:17:24;17.50;39.50
23377;DHT22;14353;46.070;13.222;2023-02-27T04:33:21;17.40;39.50
23377;DHT22;14353;46.070;13.222;2023-02-27T04:35:53;17.40;39.60
23377;DHT22;14353;46.070;13.222;2023-02-27T04:38:45;17.40;39.60
23377;DHT22;14353;46.070;13.222;2023-02-27T04:41:18;17.40;39.60
23377;DHT22;14353;46.070;13.222;2023-02-27T04:43:45;17.40;39.60
23377;DHT22;14353;46.070;13.222;2023-02-27T04:46:15;17.40;39.60
23377;DHT22;14353;46.070;13.222;2023-02-27T04:48:55;17.40;39.60
23377;DHT22;14353;46.070;13.222;2023-02-27T04:51:25;17.40;39.60
23377;DHT22;14353;46.070;13.222;2023-02-27T04:54:01;17.40;39.60
23377;DHT22;14353;46.070;13.222;2023-02-27T04:56:36;17.40;39.60
23377;DHT22;14353;46.070;13.222;2023-02-27T04:59:08;17.40;39.50
23377;DHT22;14353;46.070;13.222;2023-02-27T05:02:00;17.40;39.40
23377;DHT22;14353;46.070;13.222;2023-02-27T05:04:26;17.40;39.50
23377;DHT22;14353;46.070;13.222;2023-02-27T05:06:54;17.40;39.40
23377;DHT22;14353;46.070;13.222;2023-02-27T05:09:52;17.40;39.50
23377;DHT22;14353;46.070;13.222;2023-02-27T05:12:30;17.40;39.40
23377;DHT22;14353;46.070;13.222;2023-02-27T05:15:02;17.50;39.50
23377;DHT22;14353;46.070;13.222;2023-02-27T05:17:36;17.50;39.40
23377;DHT22;14353;46.070;13.222;2023-02-27T05:20:03;17.40;39.40
23377;DHT22;14353;46.070;13.222;2023-02-27T05:22:54;17.50;39.40
23377;DHT22;14353;46.070;13.222;2023-02-27T05:28:34;17.50;39.50
23377;DHT22;14353;46.070;13.222;2023-02-27T05:31:12;17.50;39.50
23377;DHT22;14353;46.070;13.222;2023-02-27T05:33:50;17.50;39.50
23377;DHT22;14353;46.070;13.222;2023-02-27T05:36:35;17.50;39.40
23377;DHT22;14353;46.070;13.222;2023-02-27T05:39:05;17.50;39.40
23377;DHT22;14353;46.070;13.222;2023-02-27T05:41:36;17.50;39.40
23377;DHT22;14353;46.070;13.222;2023-02-27T05:44:17;17.50;39.40
23377;DHT22;14353;46.070;13.222;2023-02-27T05:47:04;17.50;39.40
23377;DHT22;14353;46.070;13.222;2023-02-27T05:49:41;17.50;39.30
23377;DHT22;14353;46.070;13.222;2023-02-27T05:52:11;17.50;39.30
23377;DHT22;14353;46.070;13.222;2023-02-27T05:54:38;17.50;39.30
23377;DHT22;14353;46.070;13.222;2023-02-27T05:57:09;17.50;39.30
23377;DHT22;14353;46.070;13.222;2023-02-27T05:59:50;17.50;39.30
23377;DHT22;14353;46.070;13.222;2023-02-27T06:02:18;17.50;39.30
23377;DHT22;14353;46.070;13.222;2023-02-27T06:04:44;17.50;39.30
23377;DHT22;14353;46.070;13.222;2023-02-27T06:07:14;17.60;39.20
23377;DHT22;14353;46.070;13.222;2023-02-27T06:09:41;17.50;39.20
23377;DHT22;14353;46.070;13.222;2023-02-27T06:12:08;17.60;39.20
23377;DHT22;14353;46.070;13.222;2023-02-27T06:14:34;17.60;39.20
23377;DHT22;14353;46.070;13.222;2023-02-27T06:17:00;17.60;39.20
23377;DHT22;14353;46.070;13.222;2023-02-27T06:19:25;17.60;39.20
23377;DHT22;14353;46.070;13.222;2023-02-27T06:21:51;17.60;39.20
23377;DHT22;14353;46.070;13.222;2023-02-27T06:24:17;17.60;39.20
23377;DHT22;14353;46.070;13.222;2023-02-27T06:26:43;17.60;38.60
23377;DHT22;14353;46.070;13.222;2023-02-27T06:29:08;17.60;38.20
23377;DHT22;14353;46.070;13.222;2023-02-27T06:31:34;17.60;37.80
23377;DHT22;14353;46.070;13.222;2023-02-27T06:34:01;17.60;37.50
23377;DHT22;14353;46.070;13.222;2023-02-27T06:36:33;17.60;37.20
23377;DHT22;14353;46.070;13.222;2023-02-27T06:38:59;17.60;36.90
23377;DHT22;14353;46.070;13.222;2023-02-27T06:41:26;17.60;36.80
23377;DHT22;14353;46.070;13.222;2023-02-27T06:43:53;17.70;36.90
23377;DHT22;14353;46.070;13.222;2023-02-27T06:46:20;17.70;36.60
23377;DHT22;14353;46.070;13.222;2023-02-27T06:48:46;17.70;36.40
23377;DHT22;14353;46.070;13.222;2023-02-27T06:51:12;17.70;36.30
23377;DHT22;14353;46.070;13.222;2023-02-27T06:53:38;17.70;36.00
23377;DHT22;14353;46.070;13.222;2023-02-27T06:56:04;17.70;35.90
23377;DHT22;14353;46.070;13.222;2023-02-27T06:58:30;17.70;36.00
23377;DHT22;14353;46.070;13.222;2023-02-27T07:00:58;17.70;36.00
23377;DHT22;14353;46.070;13.222;2023-02-27T07:03:25;17.80;36.00
23377;DHT22;14353;46.070;13.222;2023-02-27T07:05:51;17.80;36.10
23377;DHT22;14353;46.070;13.222;2023-02-27T07:08:18;17.80;36.00
23377;DHT22;14353;46.070;13.222;2023-02-27T07:10:45;17.80;35.70
23377;DHT22;14353;46.070;13.222;2023-02-27T07:13:13;17.80;35.60
23377;DHT22;14353;46.070;13.222;2023-02-27T07:15:43;17.80;35.50
23377;DHT22;14353;46.070;13.222;2023-02-27T07:18:10;17.80;35.50
23377;DHT22;14353;46.070;13.222;2023-02-27T07:20:36;17.90;35.70
23377;DHT22;14353;46.070;13.222;2023-02-27T07:23:02;17.80;35.80
23377;DHT22;14353;46.070;13.222;2023-02-27T07:25:29;17.90;35.90
23377;DHT22;14353;46.070;13.222;2023-02-27T07:27:55;17.90;35.80
23377;DHT22;14353;46.070;13.222;2023-02-27T07:30:22;17.90;35.80
23377;DHT22;14353;46.070;13.222;2023-02-27T07:32:51;17.90;35.80
23377;DHT22;14353;46.070;13.222;2023-02-27T07:35:17;18.00;35.80
23377;DHT22;14353;46.070;13.222;2023-02-27T07:37:45;18.00;35.70
23377;DHT22;14353;46.070;13.222;2023-02-27T07:40:12;18.00;35.60
23377;DHT22;14353;46.070;13.222;2023-02-27T07:42:39;18.00;35.60
23377;DHT22;14353;46.070;13.222;2023-02-27T07:45:05;18.00;35.40
23377;DHT22;14353;46.070;13.222;2023-02-27T07:47:32;18.00;35.20
23377;DHT22;14353;46.070;13.222;2023-02-27T07:49:58;18.00;34.90
23377;DHT22;14353;46.070;13.222;2023-02-27T07:52:24;18.10;34.60
23377;DHT22;14353;46.070;13.222;2023-02-27T07:54:50;18.10;34.40
23377;DHT22;14353;46.070;13.222;2023-02-27T07:57:15;18.10;34.20
23377;DHT22;14353;46.070;13.222;2023-02-27T07:59:41;18.10;34.10
23377;DHT22;14353;46.070;13.222;2023-02-27T08:02:09;18.10;34.00
23377;DHT22;14353;46.070;13.222;2023-02-27T08:04:35;18.10;34.00
23377;DHT22;14353;46.070;13.222;2023-02-27T08:07:01;18.20;34.20
23377;DHT22;14353;46.070;13.222;2023-02-27T08:09:28;18.20;34.60
23377;DHT22;14353;46.070;13.222;2023-02-27T08:11:55;18.20;35.30
23377;DHT22;14353;46.070;13.222;2023-02-27T08:14:21;18.20;35.90
23377;DHT22;14353;46.070;13.222;2023-02-27T08:16:47;18.30;36.40
23377;DHT22;14353;46.070;13.222;2023-02-27T08:19:13;18.30;36.40
23377;DHT22;14353;46.070;13.222;2023-02-27T08:21:39;18.30;36.20
23377;DHT22;14353;46.070;13.222;2023-02-27T08:24:05;18.30;35.90
23377;DHT22;14353;46.070;13.222;2023-02-27T08:26:31;18.30;35.60
23377;DHT22;14353;46.070;13.222;2023-02-27T08:28:57;18.30;35.40
23377;DHT22;14353;46.070;13.222;2023-02-27T08:31:23;18.30;35.20
23377;DHT22;14353;46.070;13.222;2023-02-27T08:33:48;18.30;35.20
23377;DHT22;14353;46.070;13.222;2023-02-27T08:36:14;18.40;35.10
23377;DHT22;14353;46.070;13.222;2023-02-27T08:38:40;18.40;35.10
23377;DHT22;14353;46.070;13.222;2023-02-27T08:41:06;18.40;35.00
23377;DHT22;14353;46.070;13.222;2023-02-27T08:43:33;18.40;35.00
23377;DHT22;14353;46.070;13.222;2023-02-27T08:45:59;18.40;34.90
23377;DHT22;14353;46.070;13.222;2023-02-27T08:48:24;18.40;34.90
23377;DHT22;14353;46.070;13.222;2023-02-27T08:50:51;18.40;34.90
23377;DHT22;14353;46.070;13.222;2023-02-27T08:53:17;18.50;34.90
23377;DHT22;14353;46.070;13.222;2023-02-27T08:55:43;18.50;34.90
23377;DHT22;14353;46.070;13.222;2023-02-27T08:58:09;18.50;34.90
23377;DHT22;14353;46.070;13.222;2023-02-27T09:00:35;18.60;34.90
23377;DHT22;14353;46.070;13.222;2023-02-27T09:03:01;18.60;34.80
23377;DHT22;14353;46.070;13.222;2023-02-27T09:05:27;18.50;34.70
23377;DHT22;14353;46.070;13.222;2023-02-27T09:07:54;18.60;34.80
23377;DHT22;14353;46.070;13.222;2023-02-27T09:10:20;18.60;34.90
23377;DHT22;14353;46.070;13.222;2023-02-27T09:12:47;18.60;34.80
23377;DHT22;14353;46.070;13.222;2023-02-27T09:15:13;18.70;35.00
23377;DHT22;14353;46.070;13.222;2023-02-27T09:17:39;18.70;35.00
23377;DHT22;14353;46.070;13.222;2023-02-27T09:20:06;18.70;35.10
23377;DHT22;14353;46.070;13.222;2023-02-27T09:22:34;18.70;35.20
23377;DHT22;14353;46.070;13.222;2023-02-27T09:25:00;18.70;35.30
23377;DHT22;14353;46.070;13.222;2023-02-27T09:27:26;18.70;35.50
23377;DHT22;14353;46.070;13.222;2023-02-27T09:29:52;18.70;35.60
23377;DHT22;14353;46.070;13.222;2023-02-27T09:32:24;18.80;35.70
23377;DHT22;14353;46.070;13.222;2023-02-27T09:34:50;18.80;35.70
23377;DHT22;14353;46.070;13.222;2023-02-27T09:37:17;18.80;35.80
23377;DHT22;14353;46.070;13.222;2023-02-27T09:39:46;18.80;35.80
23377;DHT22;14353;46.070;13.222;2023-02-27T09:42:24;18.80;35.80
23377;DHT22;14353;46.070;13.222;2023-02-27T09:45:20;18.80;35.90
23377;DHT22;14353;46.070;13.222;2023-02-27T09:47:59;18.90;35.90
23377;DHT22;14353;46.070;13.222;2023-02-27T09:50:46;18.90;35.90
23377;DHT22;14353;46.070;13.222;2023-02-27T09:53:23;18.90;35.90
23377;DHT22;14353;46.070;13.222;2023-02-27T09:55:53;18.90;36.00
23377;DHT22;14353;46.070;13.222;2023-02-27T10:01:04;19.00;36.80
23377;DHT22;14353;46.070;13.222;2023-02-27T10:03:38;19.00;37.20
23377;DHT22;14353;46.070;13.222;2023-02-27T10:09:08;19.10;37.80
23377;DHT22;14353;46.070;13.222;2023-02-27T10:11:52;19.10;38.10
23377;DHT22;14353;46.070;13.222;2023-02-27T10:16:58;19.20;38.30
23377;DHT22;14353;46.070;13.222;2023-02-27T10:19:29;19.20;38.50
23377;DHT22;14353;46.070;13.222;2023-02-27T10:21:57;19.20;38.50
23377;DHT22;14353;46.070;13.222;2023-02-27T10:24:38;19.30;38.50
23377;DHT22;14353;46.070;13.222;2023-02-27T10:27:14;19.30;38.40
23377;DHT22;14353;46.070;13.222;2023-02-27T10:29:42;19.30;38.20
23377;DHT22;14353;46.070;13.222;2023-02-27T10:32:34;19.40;38.10
23377;DHT22;14353;46.070;13.222;2023-02-27T10:35:09;19.40;37.90
23377;DHT22;14353;46.070;13.222;2023-02-27T10:37:45;19.40;37.70
23377;DHT22;14353;46.070;13.222;2023-02-27T10:40:14;19.40;37.50
23377;DHT22;14353;46.070;13.222;2023-02-27T10:42:40;19.50;37.40
23377;DHT22;14353;46.070;13.222;2023-02-27T10:45:14;19.50;37.30
23377;DHT22;14353;46.070;13.222;2023-02-27T10:47:40;19.50;37.10
23377;DHT22;14353;46.070;13.222;2023-02-27T10:50:29;19.60;37.10
23377;DHT22;14353;46.070;13.222;2023-02-27T10:52:58;19.60;36.90
23377;DHT22;14353;46.070;13.222;2023-02-27T10:55:29;19.60;36.70
23377;DHT22;14353;46.070;13.222;2023-02-27T10:57:57;19.70;36.50
23377;DHT22;14353;46.070;13.222;2023-02-27T11:00:44;19.70;36.40
23377;DHT22;14353;46.070;13.222;2023-02-27T11:03:26;19.80;36.40
23377;DHT22;14353;46.070;13.222;2023-02-27T11:06:03;19.80;36.30
23377;DHT22;14353;46.070;13.222;2023-02-27T11:08:32;19.80;36.30
23377;DHT22;14353;46.070;13.222;2023-02-27T11:11:09;19.80;36.20
23377;DHT22;14353;46.070;13.222;2023-02-27T11:13:38;19.80;36.10
23377;DHT22;14353;46.070;13.222;2023-02-27T11:16:19;19.80;36.10
23377;DHT22;14353;46.070;13.222;2023-02-27T11:18:51;19.80;36.00
23377;DHT22;14353;46.070;13.222;2023-02-27T11:21:28;19.90;35.90
23377;DHT22;14353;46.070;13.222;2023-02-27T11:24:05;19.90;35.80
23377;DHT22;14353;46.070;13.222;2023-02-27T11:26:35;19.90;35.70
23377;DHT22;14353;46.070;13.222;2023-02-27T11:31:30;19.90;35.40
23377;DHT22;14353;46.070;13.222;2023-02-27T11:33:57;20.00;35.00
23377;DHT22;14353;46.070;13.222;2023-02-27T11:39:04;20.00;33.90
23377;DHT22;14353;46.070;13.222;2023-02-27T11:41:32;20.00;33.70
23377;DHT22;14353;46.070;13.222;2023-02-27T11:44:01;20.00;33.70
23377;DHT22;14353;46.070;13.222;2023-02-27T11:46:27;20.00;33.60
23377;DHT22;14353;46.070;13.222;2023-02-27T11:51:53;20.00;33.30
23377;DHT22;14353;46.070;13.222;2023-02-27T11:54:38;20.00;33.30
23377;DHT22;14353;46.070;13.222;2023-02-27T11:57:19;20.10;33.30
23377;DHT22;14353;46.070;13.222;2023-02-27T12:00:03;20.10;33.00
23377;DHT22;14353;46.070;13.222;2023-02-27T12:02:49;20.10;32.90
23377;DHT22;14353;46.070;13.222;2023-02-27T12:05:31;20.10;33.60
23377;DHT22;14353;46.070;13.222;2023-02-27T12:08:20;20.20;33.70
23377;DHT22;14353;46.070;13.222;2023-02-27T12:13:38;20.20;33.60
23377;DHT22;14353;46.070;13.222;2023-02-27T12:16:33;20.20;31.40
23377;DHT22;14353;46.070;13.222;2023-02-27T12:19:18;20.20;30.80
23377;DHT22;14353;46.070;13.222;2023-02-27T12:21:51;20.20;31.40
23377;DHT22;14353;46.070;13.222;2023-02-27T12:27:39;20.30;31.50
23377;DHT22;14353;46.070;13.222;2023-02-27T12:30:10;20.30;31.70
23377;DHT22;14353;46.070;13.222;2023-02-27T12:33:01;20.30;31.60
23377;DHT22;14353;46.070;13.222;2023-02-27T12:35:30;20.30;31.30
23377;DHT22;14353;46.070;13.222;2023-02-27T12:37:57;20.30;31.50
23377;DHT22;14353;46.070;13.222;2023-02-27T12:40:37;20.30;31.30
23377;DHT22;14353;46.070;13.222;2023-02-27T12:43:24;20.30;31.50
23377;DHT22;14353;46.070;13.222;2023-02-27T12:54:35;20.40;29.80
23377;DHT22;14353;46.070;13.222;2023-02-27T12:57:24;20.40;30.00
23377;DHT22;14353;46.070;13.222;2023-02-27T13:02:50;20.50;30.00
23377;DHT22;14353;46.070;13.222;2023-02-27T13:05:30;20.50;30.10
23377;DHT22;14353;46.070;13.222;2023-02-27T13:13:43;20.40;29.60
23377;DHT22;14353;46.070;13.222;2023-02-27T13:16:40;20.40;30.00
23377;DHT22;14353;46.070;13.222;2023-02-27T13:19:13;20.40;29.60
23377;DHT22;14353;46.070;13.222;2023-02-27T13:21:53;20.30;29.50
23377;DHT22;14353;46.070;13.222;2023-02-27T13:24:23;20.30;29.40
23377;DHT22;14353;46.070;13.222;2023-02-27T13:27:13;20.30;29.50
23377;DHT22;14353;46.070;13.222;2023-02-27T13:29:51;20.30;28.80
23377;DHT22;14353;46.070;13.222;2023-02-27T13:37:51;20.20;28.40
23377;DHT22;14353;46.070;13.222;2023-02-27T13:40:40;20.10;28.30
23377;DHT22;14353;46.070;13.222;2023-02-27T13:43:28;20.10;28.20
23377;DHT22;14353;46.070;13.222;2023-02-27T13:46:19;20.10;28.20
23377;DHT22;14353;46.070;13.222;2023-02-27T13:48:50;20.00;28.20
23377;DHT22;14353;46.070;13.222;2023-02-27T13:59:34;19.90;29.30
23377;DHT22;14353;46.070;13.222;2023-02-27T14:04:38;19.90;29.60
23377;DHT22;14353;46.070;13.222;2023-02-27T14:07:13;19.90;29.80
23377;DHT22;14353;46.070;13.222;2023-02-27T14:09:41;19.90;29.90
23377;DHT22;14353;46.070;13.222;2023-02-27T14:12:31;19.90;30.00
23377;DHT22;14353;46.070;13.222;2023-02-27T14:14:58;19.90;30.00
23377;DHT22;14353;46.070;13.222;2023-02-27T14:20:01;19.90;30.10
23377;DHT22;14353;46.070;13.222;2023-02-27T14:25:34;19.90;30.50
23377;DHT22;14353;46.070;13.222;2023-02-27T14:28:02;19.90;30.50
23377;DHT22;14353;46.070;13.222;2023-02-27T14:30:32;19.90;30.40
23377;DHT22;14353;46.070;13.222;2023-02-27T14:36:05;19.80;30.30
23377;DHT22;14353;46.070;13.222;2023-02-27T14:38:32;19.90;30.40
23377;DHT22;14353;46.070;13.222;2023-02-27T14:41:23;19.90;30.40
23377;DHT22;14353;46.070;13.222;2023-02-27T14:43:52;19.80;30.20
23377;DHT22;14353;46.070;13.222;2023-02-27T14:46:28;19.80;30.20
23377;DHT22;14353;46.070;13.222;2023-02-27T14:49:01;19.80;30.30
23377;DHT22;14353;46.070;13.222;2023-02-27T14:51:31;19.80;30.10
23377;DHT22;14353;46.070;13.222;2023-02-27T14:54:17;19.80;30.10
23377;DHT22;14353;46.070;13.222;2023-02-27T14:57:00;19.80;30.10
23377;DHT22;14353;46.070;13.222;2023-02-27T15:02:02;19.80;29.70
23377;DHT22;14353;46.070;13.222;2023-02-27T15:04:30;19.80;29.90
23377;DHT22;14353;46.070;13.222;2023-02-27T15:06:57;19.80;30.00
23377;DHT22;14353;46.070;13.222;2023-02-27T15:09:40;19.80;30.00
23377;DHT22;14353;46.070;13.222;2023-02-27T15:12:17;19.80;30.10
23377;DHT22;14353;46.070;13.222;2023-02-27T15:14:46;19.70;30.10
23377;DHT22;14353;46.070;13.222;2023-02-27T15:17:20;19.80;30.10
23377;DHT22;14353;46.070;13.222;2023-02-27T15:19:49;19.80;30.20
23377;DHT22;14353;46.070;13.222;2023-02-27T15:22:22;19.80;30.30
23377;DHT22;14353;46.070;13.222;2023-02-27T15:24:51;19.80;30.40
23377;DHT22;14353;46.070;13.222;2023-02-27T15:27:20;19.80;30.50
23377;DHT22;14353;46.070;13.222;2023-02-27T15:29:55;19.80;30.50
23377;DHT22;14353;46.070;13.222;2023-02-27T15:34:54;19.80;30.50
23377;DHT22;14353;46.070;13.222;2023-02-27T15:37:23;19.70;30.60
23377;DHT22;14353;46.070;13.222;2023-02-27T15:39:51;19.70;30.60
23377;DHT22;14353;46.070;13.222;2023-02-27T15:42:20;19.70;30.50
23377;DHT22;14353;46.070;13.222;2023-02-27T15:44:48;19.70;30.50
23377;DHT22;14353;46.070;13.222;2023-02-27T15:47:20;19.70;31.10
23377;DHT22;14353;46.070;13.222;2023-02-27T15:49:51;19.70;30.00
23377;DHT22;14353;46.070;13.222;2023-02-27T15:52:23;19.70;30.00
23377;DHT22;14353;46.070;13.222;2023-02-27T15:54:53;19.70;30.00
23377;DHT22;14353;46.070;13.222;2023-02-27T15:57:24;19.70;30.00
23377;DHT22;14353;46.070;13.222;2023-02-27T15:59:51;19.70;30.00
23377;DHT22;14353;46.070;13.222;2023-02-27T16:02:22;19.70;29.90
23377;DHT22;14353;46.070;13.222;2023-02-27T16:04:49;19.70;29.90
23377;DHT22;14353;46.070;13.222;2023-02-27T16:07:18;19.70;30.00
23377;DHT22;14353;46.070;13.222;2023-02-27T16:09:48;19.70;29.80
23377;DHT22;14353;46.070;13.222;2023-02-27T16:12:31;19.70;29.90
23377;DHT22;14353;46.070;13.222;2023-02-27T16:20:47;19.60;30.10
23377;DHT22;14353;46.070;13.222;2023-02-27T16:25:42;19.60;30.10
23377;DHT22;14353;46.070;13.222;2023-02-27T16:28:13;19.60;30.30
23377;DHT22;14353;46.070;13.222;2023-02-27T16:30:40;19.60;30.20
23377;DHT22;14353;46.070;13.222;2023-02-27T16:33:14;19.60;30.10
23377;DHT22;14353;46.070;13.222;2023-02-27T16:35:44;19.50;30.10
23377;DHT22;14353;46.070;13.222;2023-02-27T16:38:10;19.50;30.10
23377;DHT22;14353;46.070;13.222;2023-02-27T16:40:36;19.50;30.00
23377;DHT22;14353;46.070;13.222;2023-02-27T16:43:02;19.50;30.00
23377;DHT22;14353;46.070;13.222;2023-02-27T16:45:28;19.50;30.00
23377;DHT22;14353;46.070;13.222;2023-02-27T16:47:59;19.50;30.00
23377;DHT22;14353;46.070;13.222;2023-02-27T16:50:31;19.50;30.00
23377;DHT22;14353;46.070;13.222;2023-02-27T16:52:58;19.50;29.90
23377;DHT22;14353;46.070;13.222;2023-02-27T16:55:24;19.50;30.00
23377;DHT22;14353;46.070;13.222;2023-02-27T16:57:50;19.50;30.00
23377;DHT22;14353;46.070;13.222;2023-02-27T17:00:17;19.40;30.00
23377;DHT22;14353;46.070;13.222;2023-02-27T17:02:43;19.40;30.00
23377;DHT22;14353;46.070;13.222;2023-02-27T17:05:09;19.40;30.10
23377;DHT22;14353;46.070;13.222;2023-02-27T17:07:35;19.40;30.20
23377;DHT22;14353;46.070;13.222;2023-02-27T17:10:01;19.40;30.00
23377;DHT22;14353;46.070;13.222;2023-02-27T17:12:27;19.40;30.00
23377;DHT22;14353;46.070;13.222;2023-02-27T17:14:53;19.40;30.10
23377;DHT22;14353;46.070;13.222;2023-02-27T17:17:19;19.40;30.20
23377;DHT22;14353;46.070;13.222;2023-02-27T17:19:45;19.40;30.10
23377;DHT22;14353;46.070;13.222;2023-02-27T17:22:11;19.40;30.20
23377;DHT22;14353;46.070;13.222;2023-02-27T17:24:37;19.40;30.30
23377;DHT22;14353;46.070;13.222;2023-02-27T17:27:03;19.30;30.20
23377;DHT22;14353;46.070;13.222;2023-02-27T17:29:29;19.30;30.30
23377;DHT22;14353;46.070;13.222;2023-02-27T17:31:55;19.30;30.30
23377;DHT22;14353;46.070;13.222;2023-02-27T17:34:22;19.30;30.30
23377;DHT22;14353;46.070;13.222;2023-02-27T17:36:48;19.30;30.50
23377;DHT22;14353;46.070;13.222;2023-02-27T17:39:14;19.30;30.50
23377;DHT22;14353;46.070;13.222;2023-02-27T17:41:41;19.30;30.50
23377;DHT22;14353;46.070;13.222;2023-02-27T17:44:09;19.30;30.50
23377;DHT22;14353;46.070;13.222;2023-02-27T17:46:36;19.30;30.50
23377;DHT22;14353;46.070;13.222;2023-02-27T17:49:02;19.30;30.40
23377;DHT22;14353;46.070;13.222;2023-02-27T17:51:29;19.30;30.50
23377;DHT22;14353;46.070;13.222;2023-02-27T17:53:55;19.30;30.50
23377;DHT22;14353;46.070;13.222;2023-02-27T17:56:22;19.20;30.40
23377;DHT22;14353;46.070;13.222;2023-02-27T17:58:48;19.30;30.50
23377;DHT22;14353;46.070;13.222;2023-02-27T18:01:18;19.20;30.60
23377;DHT22;14353;46.070;13.222;2023-02-27T18:03:46;19.20;30.50